METAR Data
IDs: Format: Raw Decoded Include TAF

Data at: 0713 UTC 19 Aug 2022

FALE 190600Z 25007KT 9999 -RA NSC 16/09 Q1017 NOSIG